Time;durP1;ratioP1;P1;durP2;ratioP2;P2;SDS_P1;SDS_P2;PMS_P1;PMS_P2;Temp;Humidity;BMP_temperature;BMP_pressure;BME280_temperature;BME280_humidity;BME280_pressure;Samples;Min_cycle;Max_cycle;Signal;HPM_P1;HPM_P2
2021/03/29 00:02:19;;;;;;;5.70;4.00;;;;;;;;;;5109490;28;20954;-43
2021/03/29 00:04:44;;;;;;;4.37;3.70;;;;;;;;;;5107749;28;20167;-43
2021/03/29 00:07:10;;;;;;;4.20;3.60;;;;;;;;;;5107721;28;20173;-43
2021/03/29 00:09:35;;;;;;;6.13;5.40;;;;;;;;;;5100121;28;20181;-43
2021/03/29 00:12:02;;;;;;;5.80;5.03;;;;;;;;;;5108817;28;20246;-43
2021/03/29 00:14:28;;;;;;;5.03;4.60;;;;;;;;;;5101536;28;20757;-43
2021/03/29 00:16:53;;;;;;;6.63;4.50;;;;;;;;;;5108783;28;20727;-42
2021/03/29 00:19:19;;;;;;;5.40;4.30;;;;;;;;;;5104468;28;20842;-43
2021/03/29 00:21:44;;;;;;;6.23;3.70;;;;;;;;;;5108620;28;20529;-43
2021/03/29 00:24:10;;;;;;;5.23;3.87;;;;;;;;;;5101849;28;20258;-43
2021/03/29 00:26:38;;;;;;;3.43;3.03;;;;;;;;;;5107342;28;20167;-43
2021/03/29 00:29:04;;;;;;;3.67;3.27;;;;;;;;;;5105113;28;20189;-43
2021/03/29 00:31:29;;;;;;;3.93;3.20;;;;;;;;;;5102859;28;21157;-43
2021/03/29 00:33:55;;;;;;;4.00;3.60;;;;;;;;;;5107415;28;20183;-42
2021/03/29 00:36:23;;;;;;;4.00;3.60;;;;;;;;;;5108022;28;20200;-43
2021/03/29 00:38:52;;;;;;;3.90;3.43;;;;;;;;;;5108896;28;20170;-43
2021/03/29 00:41:18;;;;;;;5.40;3.43;;;;;;;;;;5105454;28;20992;-43
2021/03/29 00:43:44;;;;;;;5.10;3.47;;;;;;;;;;5108624;28;20602;-43
2021/03/29 00:46:10;;;;;;;4.27;3.00;;;;;;;;;;5106409;28;20257;-42
2021/03/29 00:48:36;;;;;;;4.30;3.20;;;;;;;;;;5108175;28;20607;-43
2021/03/29 00:51:01;;;;;;;5.80;3.70;;;;;;;;;;5101731;28;20617;-43
2021/03/29 00:53:27;;;;;;;6.72;3.40;;;;;;;;;;5107582;28;21456;-42
2021/03/29 00:55:53;;;;;;;4.10;3.40;;;;;;;;;;5107559;28;20225;-42
2021/03/29 00:58:23;;;;;;;3.40;3.10;;;;;;;;;;5106545;28;20167;-42
2021/03/29 01:00:55;;;;;;;9.27;3.67;;;;;;;;;;5107651;28;21017;-42
2021/03/29 01:03:22;;;;;;;4.67;3.40;;;;;;;;;;5107274;28;20595;-43
2021/03/29 01:05:56;;;;;;;5.43;3.60;;;;;;;;;;5105432;28;20598;-43
2021/03/29 01:08:22;;;;;;;4.10;3.37;;;;;;;;;;5105708;28;21009;-43
2021/03/29 01:10:47;;;;;;;3.90;2.90;;;;;;;;;;5104709;28;20625;-42
2021/03/29 01:13:13;;;;;;;3.60;2.80;;;;;;;;;;5103619;28;24953;-42
2021/03/29 01:15:40;;;;;;;3.22;2.80;;;;;;;;;;5098819;28;24979;-43
2021/03/29 01:18:07;;;;;;;5.57;3.93;;;;;;;;;;5105644;28;20173;-43
2021/03/29 01:20:35;;;;;;;7.03;3.40;;;;;;;;;;5107518;28;20645;-43
2021/03/29 01:23:01;;;;;;;4.30;3.20;;;;;;;;;;5102997;28;21057;-42
2021/03/29 01:25:29;;;;;;;7.50;4.00;;;;;;;;;;5106740;28;20595;-42
2021/03/29 01:27:55;;;;;;;3.10;2.90;;;;;;;;;;5106791;28;20603;-42
2021/03/29 01:30:22;;;;;;;3.80;2.83;;;;;;;;;;5107394;28;20600;-42
2021/03/29 01:32:48;;;;;;;4.07;3.03;;;;;;;;;;5107318;28;20606;-44
2021/03/29 01:35:18;;;;;;;4.70;3.70;;;;;;;;;;5107729;28;21198;-42
2021/03/29 01:37:44;;;;;;;4.23;3.50;;;;;;;;;;5105493;28;20666;-43
2021/03/29 01:40:10;;;;;;;3.70;3.00;;;;;;;;;;5101269;28;20708;-42
2021/03/29 01:42:36;;;;;;;4.27;3.53;;;;;;;;;;5103016;28;20628;-42
2021/03/29 01:45:01;;;;;;;5.57;3.67;;;;;;;;;;5102486;28;20177;-42
2021/03/29 01:47:26;;;;;;;4.40;2.90;;;;;;;;;;5102478;28;20270;-42
2021/03/29 01:49:52;;;;;;;3.20;2.80;;;;;;;;;;5106737;28;20181;-42
2021/03/29 01:52:17;;;;;;;3.10;2.87;;;;;;;;;;5106779;28;20263;-41
2021/03/29 01:54:43;;;;;;;3.70;3.20;;;;;;;;;;5103402;28;20584;-42
2021/03/29 01:57:08;;;;;;;3.20;2.90;;;;;;;;;;5107111;28;20688;-42
2021/03/29 01:59:34;;;;;;;2.87;2.67;;;;;;;;;;5098786;28;20202;-42
2021/03/29 02:02:00;;;;;;;3.30;2.97;;;;;;;;;;5106860;28;20962;-42
2021/03/29 02:04:27;;;;;;;7.10;2.60;;;;;;;;;;5106853;28;20188;-42
2021/03/29 02:06:53;;;;;;;4.40;2.90;;;;;;;;;;5100229;28;20648;-45
2021/03/29 02:09:18;;;;;;;3.43;2.77;;;;;;;;;;5105009;28;20606;-43
2021/03/29 02:11:43;;;;;;;3.73;2.70;;;;;;;;;;5105270;28;20319;-42
2021/03/29 02:14:09;;;;;;;3.72;2.83;;;;;;;;;;5106673;28;20195;-43
2021/03/29 02:16:34;;;;;;;7.53;3.10;;;;;;;;;;5104934;28;20210;-42
2021/03/29 02:19:01;;;;;;;3.10;2.53;;;;;;;;;;5101467;28;20180;-43
2021/03/29 02:21:29;;;;;;;3.53;3.07;;;;;;;;;;5107271;28;20235;-42
2021/03/29 02:23:57;;;;;;;4.13;2.97;;;;;;;;;;5103024;28;21212;-43
2021/03/29 02:26:23;;;;;;;4.20;3.60;;;;;;;;;;5106108;28;20608;-42
2021/03/29 02:28:49;;;;;;;4.23;3.73;;;;;;;;;;5105282;28;20614;-43
2021/03/29 02:31:14;;;;;;;5.57;3.07;;;;;;;;;;5098421;28;20593;-43
2021/03/29 02:33:40;;;;;;;5.07;3.20;;;;;;;;;;5107444;28;20178;-43
2021/03/29 02:36:06;;;;;;;4.40;3.37;;;;;;;;;;5106032;28;20482;-43
2021/03/29 02:38:31;;;;;;;3.53;2.70;;;;;;;;;;5109798;28;20255;-42
2021/03/29 02:40:56;;;;;;;3.40;2.77;;;;;;;;;;5100647;28;20242;-48
2021/03/29 02:43:22;;;;;;;3.67;3.07;;;;;;;;;;5110269;28;20704;-43
2021/03/29 02:45:55;;;;;;;6.43;3.40;;;;;;;;;;5108149;28;20234;-43
2021/03/29 02:48:21;;;;;;;3.20;2.97;;;;;;;;;;5108723;28;20730;-43
2021/03/29 02:50:48;;;;;;;4.40;3.20;;;;;;;;;;5110091;28;20595;-43
2021/03/29 02:53:16;;;;;;;5.40;2.70;;;;;;;;;;5106181;28;20699;-42
2021/03/29 02:55:42;;;;;;;3.50;3.20;;;;;;;;;;5110347;28;20641;-45
2021/03/29 02:58:08;;;;;;;8.17;3.17;;;;;;;;;;5107456;28;20608;-42
2021/03/29 03:00:34;;;;;;;5.23;2.97;;;;;;;;;;5110590;28;20964;-42
2021/03/29 03:03:01;;;;;;;3.57;3.27;;;;;;;;;;5108610;28;20181;-42
2021/03/29 03:05:30;;;;;;;4.93;3.30;;;;;;;;;;5110308;28;20606;-41
2021/03/29 03:07:56;;;;;;;5.10;3.40;;;;;;;;;;5108253;28;20757;-42
2021/03/29 03:10:21;;;;;;;4.23;3.10;;;;;;;;;;5105758;28;21135;-42
2021/03/29 03:12:47;;;;;;;6.93;3.60;;;;;;;;;;5113284;27;20690;-43
2021/03/29 03:15:19;;;;;;;6.33;2.90;;;;;;;;;;5110469;28;20200;-42
2021/03/29 03:17:45;;;;;;;5.30;3.20;;;;;;;;;;5110160;28;20666;-43
2021/03/29 03:20:11;;;;;;;3.60;3.27;;;;;;;;;;5107964;28;21169;-43
2021/03/29 03:22:47;;;;;;;4.57;3.10;;;;;;;;;;5110402;28;20174;-43
2021/03/29 03:25:17;;;;;;;3.53;3.00;;;;;;;;;;5108263;28;21160;-42
2021/03/29 03:27:44;;;;;;;4.47;3.43;;;;;;;;;;5109804;28;20634;-42
2021/03/29 03:30:15;;;;;;;4.07;3.20;;;;;;;;;;5105309;28;20629;-43
2021/03/29 03:32:41;;;;;;;6.13;2.87;;;;;;;;;;5099884;28;20627;-43
2021/03/29 03:35:06;;;;;;;4.57;3.33;;;;;;;;;;5108034;28;20638;-41
2021/03/29 03:37:31;;;;;;;6.20;3.00;;;;;;;;;;5107305;28;20209;-43
2021/03/29 03:39:56;;;;;;;7.38;3.50;;;;;;;;;;5105250;28;20190;-43
2021/03/29 03:42:22;;;;;;;3.53;2.83;;;;;;;;;;5109304;28;20170;-43
2021/03/29 03:44:47;;;;;;;4.47;3.47;;;;;;;;;;5109394;28;20167;-43
2021/03/29 03:47:13;;;;;;;3.83;3.13;;;;;;;;;;5110024;28;20249;-43
2021/03/29 03:49:38;;;;;;;5.00;3.13;;;;;;;;;;5100108;28;20183;-50
2021/03/29 03:52:04;;;;;;;3.93;2.80;;;;;;;;;;5109182;28;20306;-43
2021/03/29 03:54:29;;;;;;;7.53;3.53;;;;;;;;;;5102866;27;20209;-42
2021/03/29 03:56:54;;;;;;;6.53;3.23;;;;;;;;;;5109180;28;20210;-43
2021/03/29 03:59:20;;;;;;;4.13;3.43;;;;;;;;;;5107692;28;20207;-43
2021/03/29 04:02:04;;;;;;;4.50;3.13;;;;;;;;;;5105215;28;20186;-43
2021/03/29 04:04:29;;;;;;;3.93;2.80;;;;;;;;;;5109416;28;20174;-43
2021/03/29 04:06:56;;;;;;;5.60;3.40;;;;;;;;;;5108939;28;20667;-43
2021/03/29 04:09:26;;;;;;;5.50;3.80;;;;;;;;;;5109151;28;20189;-43
2021/03/29 04:11:52;;;;;;;3.60;2.87;;;;;;;;;;5108024;28;20592;-44
2021/03/29 04:14:18;;;;;;;4.87;3.10;;;;;;;;;;5112677;27;20660;-43
2021/03/29 04:16:43;;;;;;;4.30;2.73;;;;;;;;;;5108525;28;20730;-43
2021/03/29 04:19:08;;;;;;;4.60;3.10;;;;;;;;;;5109160;28;20253;-43
2021/03/29 04:21:34;;;;;;;3.63;2.80;;;;;;;;;;5108550;27;20681;-43
2021/03/29 04:23:59;;;;;;;3.17;2.87;;;;;;;;;;5104943;28;20188;-41
2021/03/29 04:26:24;;;;;;;5.05;3.40;;;;;;;;;;5104713;28;20181;-41
2021/03/29 04:28:49;;;;;;;9.60;4.05;;;;;;;;;;5107293;28;20174;-42
2021/03/29 04:31:14;;;;;;;11.10;4.40;;;;;;;;;;5100698;28;20166;-42
2021/03/29 04:33:39;;;;;;;5.95;3.00;;;;;;;;;;5107519;28;20637;-42
2021/03/29 04:36:05;;;;;;;5.93;3.45;;;;;;;;;;5108780;28;20197;-43
2021/03/29 04:38:30;;;;;;;7.27;3.97;;;;;;;;;;5104122;28;20263;-43
2021/03/29 04:40:55;;;;;;;4.07;2.88;;;;;;;;;;5108400;28;20202;-43
2021/03/29 04:43:20;;;;;;;4.47;2.85;;;;;;;;;;5107552;28;20180;-43
2021/03/29 04:45:45;;;;;;;6.80;3.20;;;;;;;;;;5109189;28;20174;-43
2021/03/29 04:48:10;;;;;;;8.37;3.50;;;;;;;;;;5108456;28;20405;-42
2021/03/29 04:50:36;;;;;;;4.83;3.10;;;;;;;;;;5104858;28;21641;-42
2021/03/29 04:53:01;;;;;;;5.37;2.97;;;;;;;;;;5105515;28;20202;-42
2021/03/29 04:55:26;;;;;;;4.83;2.60;;;;;;;;;;5107206;28;20249;-42
2021/03/29 04:57:51;;;;;;;5.75;3.08;;;;;;;;;;5105685;28;20225;-43
2021/03/29 05:00:16;;;;;;;4.72;2.83;;;;;;;;;;5108233;28;20181;-43
2021/03/29 05:02:42;;;;;;;3.47;2.83;;;;;;;;;;5107464;28;20172;-44
2021/03/29 05:05:08;;;;;;;2.87;2.60;;;;;;;;;;5107670;28;20167;-43
2021/03/29 05:07:33;;;;;;;4.07;3.10;;;;;;;;;;5107838;28;20819;-43
2021/03/29 05:09:58;;;;;;;4.10;2.77;;;;;;;;;;5100315;28;20645;-43
2021/03/29 05:12:23;;;;;;;5.10;3.27;;;;;;;;;;5107985;28;20205;-42
2021/03/29 05:14:49;;;;;;;3.70;2.70;;;;;;;;;;5099536;28;20170;-43
2021/03/29 05:17:14;;;;;;;3.90;2.73;;;;;;;;;;5105936;28;20712;-43
2021/03/29 05:19:39;;;;;;;2.88;2.60;;;;;;;;;;5104810;28;20177;-43
2021/03/29 05:22:08;;;;;;;6.43;2.97;;;;;;;;;;5107078;28;20182;-44
2021/03/29 05:24:34;;;;;;;5.07;3.33;;;;;;;;;;5103170;28;20175;-43
2021/03/29 05:26:59;;;;;;;4.20;3.20;;;;;;;;;;5105404;28;20954;-44
2021/03/29 05:29:27;;;;;;;4.23;3.80;;;;;;;;;;5100818;27;20174;-43
2021/03/29 05:31:52;;;;;;;6.73;4.43;;;;;;;;;;5104243;27;20651;-43
2021/03/29 05:34:18;;;;;;;7.53;4.23;;;;;;;;;;5104426;28;20598;-43
2021/03/29 05:36:43;;;;;;;9.40;4.30;;;;;;;;;;5101483;28;20201;-43
2021/03/29 05:39:09;;;;;;;7.32;4.45;;;;;;;;;;5104950;28;20162;-43
2021/03/29 05:41:36;;;;;;;5.73;4.30;;;;;;;;;;5103970;28;20201;-43
2021/03/29 05:44:02;;;;;;;8.00;4.13;;;;;;;;;;5103336;28;21169;-42
2021/03/29 05:46:27;;;;;;;9.60;4.90;;;;;;;;;;5102592;28;20610;-42
2021/03/29 05:48:52;;;;;;;6.00;4.60;;;;;;;;;;5101919;28;20255;-43
2021/03/29 05:51:18;;;;;;;5.33;4.10;;;;;;;;;;5100320;28;20190;-43
2021/03/29 05:53:43;;;;;;;6.13;4.50;;;;;;;;;;5104051;28;20212;-43
2021/03/29 05:56:09;;;;;;;5.77;4.03;;;;;;;;;;5100874;28;20337;-42
2021/03/29 05:58:40;;;;;;;4.53;4.10;;;;;;;;;;5102595;28;20174;-42
2021/03/29 06:01:06;;;;;;;5.07;4.10;;;;;;;;;;5101360;28;20674;-43
2021/03/29 06:03:36;;;;;;;5.30;4.10;;;;;;;;;;5091292;28;20614;-43
2021/03/29 06:06:01;;;;;;;7.03;4.10;;;;;;;;;;5103031;28;20628;-42
2021/03/29 06:08:27;;;;;;;5.20;4.70;;;;;;;;;;5095875;28;20635;-42
2021/03/29 06:10:54;;;;;;;9.07;4.50;;;;;;;;;;5102964;28;20174;-42
2021/03/29 06:13:23;;;;;;;9.30;4.63;;;;;;;;;;5103213;28;20263;-42
2021/03/29 06:15:59;;;;;;;6.30;4.67;;;;;;;;;;5095588;28;20604;-42
2021/03/29 06:18:24;;;;;;;8.50;5.77;;;;;;;;;;5096112;28;20965;-43
2021/03/29 06:21:08;;;;;;;6.97;4.57;;;;;;;;;;5107584;28;20584;-43
2021/03/29 06:23:34;;;;;;;8.17;5.17;;;;;;;;;;5098957;28;20812;-43
2021/03/29 06:26:22;;;;;;;9.13;4.60;;;;;;;;;;5098344;28;20601;-42
2021/03/29 06:28:48;;;;;;;9.37;4.60;;;;;;;;;;5090919;28;20189;-42
2021/03/29 06:31:32;;;;;;;14.47;4.10;;;;;;;;;;5104216;28;20609;-42
2021/03/29 06:33:58;;;;;;;9.00;4.93;;;;;;;;;;5104114;28;20182;-43
2021/03/29 06:36:37;;;;;;;10.10;4.43;;;;;;;;;;5103649;28;20800;-43
2021/03/29 06:39:13;;;;;;;4.30;3.90;;;;;;;;;;5097909;28;20694;-42
2021/03/29 06:41:39;;;;;;;4.33;3.43;;;;;;;;;;5097212;28;20601;-42
2021/03/29 06:44:05;;;;;;;7.23;3.63;;;;;;;;;;5101379;28;21217;-44
2021/03/29 06:46:30;;;;;;;5.13;3.10;;;;;;;;;;5103900;28;20596;-42
2021/03/29 06:48:56;;;;;;;3.80;3.10;;;;;;;;;;5101714;28;20236;-42
2021/03/29 06:51:23;;;;;;;5.67;3.17;;;;;;;;;;5099538;28;20186;-43
2021/03/29 06:53:53;;;;;;;5.43;3.37;;;;;;;;;;5099343;28;20734;-43
2021/03/29 06:56:28;;;;;;;6.80;3.60;;;;;;;;;;5094366;28;20780;-43
2021/03/29 06:58:54;;;;;;;5.27;3.97;;;;;;;;;;5092987;27;20640;-43
2021/03/29 07:01:24;;;;;;;5.67;4.03;;;;;;;;;;5103266;28;20626;-42
2021/03/29 07:03:49;;;;;;;9.93;4.77;;;;;;;;;;5101012;28;20586;-43
2021/03/29 07:06:16;;;;;;;8.40;4.90;;;;;;;;;;5104782;28;20651;-42
2021/03/29 07:08:43;;;;;;;8.10;4.97;;;;;;;;;;5106170;28;20192;-42
2021/03/29 07:11:09;;;;;;;9.43;5.23;;;;;;;;;;5107268;28;20683;-42
2021/03/29 07:13:34;;;;;;;7.67;4.60;;;;;;;;;;5106503;28;20613;-42
2021/03/29 07:16:00;;;;;;;7.40;5.00;;;;;;;;;;5104627;27;20753;-43
2021/03/29 07:18:26;;;;;;;5.53;4.43;;;;;;;;;;5109538;28;20177;-43
2021/03/29 07:20:52;;;;;;;8.20;5.33;;;;;;;;;;5107173;28;20177;-43
2021/03/29 07:23:17;;;;;;;9.50;4.50;;;;;;;;;;5109620;28;20729;-43
2021/03/29 07:25:44;;;;;;;7.70;4.97;;;;;;;;;;5107983;28;20585;-43
2021/03/29 07:28:11;;;;;;;6.90;4.90;;;;;;;;;;5110767;28;20169;-43
2021/03/29 07:30:44;;;;;;;6.80;5.67;;;;;;;;;;5106664;28;21045;-43
2021/03/29 07:33:10;;;;;;;9.83;6.03;;;;;;;;;;5108089;28;20596;-42
2021/03/29 07:35:54;;;;;;;8.13;5.30;;;;;;;;;;5105098;28;20958;-43
2021/03/29 07:38:20;;;;;;;8.70;5.20;;;;;;;;;;5123435;27;20180;-44
2021/03/29 07:40:50;;;;;;;8.30;6.07;;;;;;;;;;5131327;27;20703;-43
2021/03/29 07:43:17;;;;;;;6.07;5.30;;;;;;;;;;5109595;27;21187;-43
2021/03/29 07:45:42;;;;;;;6.77;5.33;;;;;;;;;;5107830;28;20572;-44
2021/03/29 07:48:07;;;;;;;4.73;4.20;;;;;;;;;;5104358;28;20588;-43
2021/03/29 07:50:32;;;;;;;10.43;5.00;;;;;;;;;;5110464;28;20174;-43
2021/03/29 07:53:20;;;;;;;7.95;4.70;;;;;;;;;;5105611;28;20180;-43
2021/03/29 07:55:47;;;;;;;5.57;4.27;;;;;;;;;;5110138;28;20222;-43
2021/03/29 07:58:14;;;;;;;6.33;4.30;;;;;;;;;;5100949;28;20603;-43
2021/03/29 08:00:40;;;;;;;7.40;5.50;;;;;;;;;;5095700;28;20572;-43
2021/03/29 08:03:11;;;;;;;6.60;4.70;;;;;;;;;;5099903;28;20942;-42
2021/03/29 08:05:36;;;;;;;7.63;5.33;;;;;;;;;;5109314;28;20185;-42
2021/03/29 08:08:21;;;;;;;7.03;5.20;;;;;;;;;;5093955;28;20670;-43
2021/03/29 08:11:01;;;;;;;5.73;4.53;;;;;;;;;;5103715;28;20202;-43
2021/03/29 08:13:40;;;;;;;6.10;5.50;;;;;;;;;;5091342;28;20613;-43
2021/03/29 08:16:28;;;;;;;5.83;4.07;;;;;;;;;;5109436;28;20628;-42
2021/03/29 08:19:12;;;;;;;6.93;3.83;;;;;;;;;;5089483;28;20596;-43
2021/03/29 08:21:55;;;;;;;6.00;3.80;;;;;;;;;;5089552;28;20604;-42
2021/03/29 08:24:21;;;;;;;6.57;3.47;;;;;;;;;;5105688;28;20645;-43
2021/03/29 08:26:46;;;;;;;5.43;3.50;;;;;;;;;;5109784;28;20590;-42
2021/03/29 08:29:13;;;;;;;6.30;3.70;;;;;;;;;;5109200;28;20261;-42
2021/03/29 08:31:56;;;;;;;5.53;3.87;;;;;;;;;;5109859;28;20181;-42
2021/03/29 08:34:22;;;;;;;8.03;3.60;;;;;;;;;;5101637;27;20632;-42
2021/03/29 08:36:47;;;;;;;6.30;3.70;;;;;;;;;;5108968;28;21064;-42
2021/03/29 08:39:12;;;;;;;5.90;3.60;;;;;;;;;;5108707;28;20702;-42
2021/03/29 08:41:37;;;;;;;9.40;4.00;;;;;;;;;;5106143;28;20872;-43
2021/03/29 08:44:03;;;;;;;8.83;3.83;;;;;;;;;;5105599;28;20329;-43
2021/03/29 08:46:30;;;;;;;6.40;3.70;;;;;;;;;;5108760;28;20332;-43
2021/03/29 08:48:55;;;;;;;4.83;3.70;;;;;;;;;;5105031;28;20175;-43
2021/03/29 08:51:21;;;;;;;9.40;4.07;;;;;;;;;;5099385;28;21250;-42
2021/03/29 08:53:46;;;;;;;9.10;4.00;;;;;;;;;;5108322;28;20171;-42
2021/03/29 08:56:11;;;;;;;6.40;4.22;;;;;;;;;;5108029;28;20660;-43
2021/03/29 08:58:36;;;;;;;7.53;4.03;;;;;;;;;;5108495;28;20182;-43
2021/03/29 09:01:02;;;;;;;8.13;4.00;;;;;;;;;;5107780;28;20562;-43
2021/03/29 09:03:27;;;;;;;5.97;3.60;;;;;;;;;;5108310;28;20204;-44
2021/03/29 09:05:52;;;;;;;6.53;3.75;;;;;;;;;;5108122;28;20522;-44
2021/03/29 09:08:18;;;;;;;6.93;4.03;;;;;;;;;;5108265;28;20526;-42
2021/03/29 09:10:44;;;;;;;7.50;4.10;;;;;;;;;;5108229;28;20175;-43
2021/03/29 09:13:10;;;;;;;8.93;4.77;;;;;;;;;;5108059;28;20589;-42
2021/03/29 09:15:37;;;;;;;4.70;3.50;;;;;;;;;;5108436;28;20565;-42
2021/03/29 09:18:03;;;;;;;7.30;3.93;;;;;;;;;;5108133;28;20719;-42
2021/03/29 09:20:30;;;;;;;6.10;3.97;;;;;;;;;;5108371;28;20581;-42
2021/03/29 09:22:55;;;;;;;6.00;3.80;;;;;;;;;;5108310;28;20650;-41
2021/03/29 09:25:25;;;;;;;11.13;6.47;;;;;;;;;;5108045;28;20591;-42
2021/03/29 09:28:10;;;;;;;11.63;5.90;;;;;;;;;;5108256;28;20639;-42
2021/03/29 09:30:35;;;;;;;10.40;6.70;;;;;;;;;;5108467;28;20868;-42
2021/03/29 09:33:00;;;;;;;10.73;7.80;;;;;;;;;;5107750;28;20681;-44
2021/03/29 09:35:25;;;;;;;11.53;6.60;;;;;;;;;;5108200;28;20175;-42
2021/03/29 09:37:51;;;;;;;6.37;4.00;;;;;;;;;;5108176;28;20203;-43
2021/03/29 09:40:17;;;;;;;8.17;4.80;;;;;;;;;;5108005;28;20196;-43
2021/03/29 09:42:43;;;;;;;6.50;5.70;;;;;;;;;;5107671;28;20226;-42
2021/03/29 09:45:10;;;;;;;8.83;4.47;;;;;;;;;;5088727;28;24405;-43
2021/03/29 09:47:35;;;;;;;4.57;3.30;;;;;;;;;;5107583;28;20180;-43
2021/03/29 09:50:03;;;;;;;9.53;6.70;;;;;;;;;;5107805;28;20572;-42
2021/03/29 09:52:33;;;;;;;8.00;4.97;;;;;;;;;;5107665;28;20226;-44
2021/03/29 09:54:59;;;;;;;8.00;4.47;;;;;;;;;;5107767;28;21472;-44
2021/03/29 09:57:24;;;;;;;6.90;4.60;;;;;;;;;;5107053;28;20635;-43
2021/03/29 09:59:51;;;;;;;6.50;4.07;;;;;;;;;;5108333;28;20540;-44
2021/03/29 10:02:25;;;;;;;15.70;9.07;;;;;;;;;;5107940;28;20596;-42
2021/03/29 10:05:03;;;;;;;11.17;8.63;;;;;;;;;;5103668;28;20698;-43
2021/03/29 10:07:28;;;;;;;7.33;5.43;;;;;;;;;;5088511;28;20724;-46
2021/03/29 10:10:00;;;;;;;10.07;7.70;;;;;;;;;;5086332;28;24418;-43
2021/03/29 10:12:26;;;;;;;8.33;5.70;;;;;;;;;;5097504;28;20201;-42
2021/03/29 10:15:03;;;;;;;6.63;4.63;;;;;;;;;;5107967;28;20575;-45
2021/03/29 10:17:28;;;;;;;6.70;5.57;;;;;;;;;;5097162;28;21158;-43
2021/03/29 10:20:02;;;;;;;9.83;6.13;;;;;;;;;;5087371;28;20564;-43
2021/03/29 10:22:27;;;;;;;7.77;5.43;;;;;;;;;;5089058;28;20174;-43
2021/03/29 10:25:04;;;;;;;6.57;4.57;;;;;;;;;;5107719;28;21141;-43
2021/03/29 10:27:38;;;;;;;6.93;4.70;;;;;;;;;;5104293;28;20181;-43
2021/03/29 10:30:04;;;;;;;6.50;4.10;;;;;;;;;;5090052;28;20606;-43
2021/03/29 10:32:30;;;;;;;7.37;4.10;;;;;;;;;;5107245;28;20702;-43
2021/03/29 10:34:55;;;;;;;4.90;4.07;;;;;;;;;;5103502;28;20699;-43
2021/03/29 10:37:22;;;;;;;5.82;4.00;;;;;;;;;;5106881;28;20213;-43
2021/03/29 10:39:47;;;;;;;6.10;4.03;;;;;;;;;;5106094;28;20166;-45
2021/03/29 10:42:13;;;;;;;7.03;5.13;;;;;;;;;;5104547;28;20610;-43
2021/03/29 10:44:38;;;;;;;5.00;3.73;;;;;;;;;;5097993;28;20230;-42
2021/03/29 10:47:03;;;;;;;10.23;3.87;;;;;;;;;;5093329;28;20178;-42
2021/03/29 10:49:28;;;;;;;5.47;3.63;;;;;;;;;;5106661;28;20181;-42
2021/03/29 10:51:54;;;;;;;5.50;4.00;;;;;;;;;;5096304;28;20219;-42
2021/03/29 10:54:19;;;;;;;4.63;3.57;;;;;;;;;;5090388;28;20513;-42
2021/03/29 10:56:44;;;;;;;6.45;3.50;;;;;;;;;;5086526;28;20371;-43
2021/03/29 10:59:09;;;;;;;7.38;3.90;;;;;;;;;;5101814;28;20170;-43
2021/03/29 11:01:34;;;;;;;6.10;3.20;;;;;;;;;;5110348;28;20612;-42
2021/03/29 11:03:59;;;;;;;5.38;3.42;;;;;;;;;;5110479;28;20232;-43
2021/03/29 11:06:24;;;;;;;5.93;2.72;;;;;;;;;;5093738;28;24425;-44
2021/03/29 11:08:50;;;;;;;4.23;2.90;;;;;;;;;;5091576;28;20542;-44
2021/03/29 11:11:15;;;;;;;6.40;4.25;;;;;;;;;;5110128;28;20202;-43
2021/03/29 11:13:40;;;;;;;6.10;3.80;;;;;;;;;;5098746;28;20231;-43
2021/03/29 11:16:10;;;;;;;4.20;3.10;;;;;;;;;;5108089;28;20195;-43
2021/03/29 11:18:35;;;;;;;6.40;3.13;;;;;;;;;;5107451;28;20185;-43
2021/03/29 11:21:00;;;;;;;4.00;2.93;;;;;;;;;;5101686;28;20559;-43
2021/03/29 11:23:25;;;;;;;6.00;2.67;;;;;;;;;;5110457;28;20242;-42
2021/03/29 11:25:53;;;;;;;4.33;2.90;;;;;;;;;;5101098;28;24430;-42
2021/03/29 11:28:18;;;;;;;5.53;2.50;;;;;;;;;;5090147;28;20173;-42
2021/03/29 11:30:43;;;;;;;7.67;3.80;;;;;;;;;;5123028;27;21430;-43
2021/03/29 11:33:08;;;;;;;5.37;3.30;;;;;;;;;;5131097;27;20234;-43
2021/03/29 11:35:34;;;;;;;6.70;3.07;;;;;;;;;;5128248;27;20169;-44
2021/03/29 11:37:59;;;;;;;5.38;2.70;;;;;;;;;;5097165;28;24421;-43
2021/03/29 11:40:24;;;;;;;;;;;;;;;;;;5106639;28;20012;-44
2021/03/29 11:42:49;;;;;;;3.67;2.35;;;;;;;;;;5100266;28;21069;-43
2021/03/29 11:45:15;;;;;;;4.47;2.70;;;;;;;;;;5105565;28;25050;-43
2021/03/29 11:47:41;;;;;;;3.42;2.50;;;;;;;;;;5108726;28;24478;-44
2021/03/29 11:50:10;;;;;;;4.38;3.10;;;;;;;;;;5108018;28;24512;-43
2021/03/29 11:52:35;;;;;;;3.00;2.50;;;;;;;;;;5108200;28;24449;-42
2021/03/29 11:55:00;;;;;;;4.30;2.83;;;;;;;;;;5109848;28;20197;-43
2021/03/29 11:57:25;;;;;;;5.77;3.47;;;;;;;;;;5109308;28;20261;-42
2021/03/29 11:59:53;;;;;;;6.87;3.90;;;;;;;;;;5109788;28;20215;-43
2021/03/29 12:02:24;;;;;;;7.00;3.80;;;;;;;;;;5109965;28;20220;-44
2021/03/29 12:05:05;;;;;;;5.90;4.80;;;;;;;;;;5109880;28;20571;-44
2021/03/29 12:07:41;;;;;;;5.43;2.70;;;;;;;;;;5109447;28;20589;-44
2021/03/29 12:12:52;;;;;;;5.53;3.10;;;;;;;;;;5096029;28;20687;-44
2021/03/29 12:15:17;;;;;;;5.07;3.07;;;;;;;;;;5109125;28;20695;-44
2021/03/29 12:17:45;;;;;;;;;;;;;;;;;;5109782;28;20031;-44
2021/03/29 12:20:10;;;;;;;;;;;;;;;;;;5110161;28;19973;-42
2021/03/29 12:22:37;;;;;;;5.40;3.08;;;;;;;;;;5109387;28;20177;-45
2021/03/29 12:25:02;;;;;;;3.55;2.30;;;;;;;;;;5107455;28;24502;-43
2021/03/29 12:27:28;;;;;;;4.30;3.13;;;;;;;;;;5108956;28;20174;-44
2021/03/29 12:29:54;;;;;;;3.87;3.13;;;;;;;;;;5109332;28;20194;-43
2021/03/29 12:32:20;;;;;;;3.63;2.80;;;;;;;;;;5109185;28;20178;-43
2021/03/29 12:34:50;;;;;;;6.00;3.27;;;;;;;;;;5108849;28;20583;-43
2021/03/29 12:37:17;;;;;;;5.50;3.00;;;;;;;;;;5108405;28;20197;-43
2021/03/29 12:40:08;;;;;;;4.83;2.73;;;;;;;;;;5108273;28;20595;-44
2021/03/29 12:42:31;;;;;;;4.10;2.60;;;;;;;;;;5107363;28;20600;-43
2021/03/29 12:44:57;;;;;;;4.07;3.07;;;;;;;;;;5108721;28;20563;-43
2021/03/29 12:47:26;;;;;;;6.50;3.50;;;;;;;;;;5108327;28;21081;-43
2021/03/29 12:49:52;;;;;;;5.23;3.10;;;;;;;;;;5107884;28;20178;-43
2021/03/29 12:52:17;;;;;;;8.30;3.60;;;;;;;;;;5108647;28;20612;-49
2021/03/29 12:54:43;;;;;;;3.47;2.93;;;;;;;;;;5108127;28;20604;-44
2021/03/29 12:57:10;;;;;;;4.10;2.70;;;;;;;;;;5107645;28;20379;-44
2021/03/29 12:59:35;;;;;;;5.93;3.20;;;;;;;;;;5108404;28;20176;-44
2021/03/29 13:02:01;;;;;;;4.03;2.77;;;;;;;;;;5103556;28;20637;-43
2021/03/29 13:07:05;;;;;;;4.50;2.70;;;;;;;;;;5107631;28;20608;-43
2021/03/29 13:09:39;;;;;;;4.77;2.87;;;;;;;;;;5107416;28;20195;-42
2021/03/29 13:12:04;;;;;;;2.80;2.33;;;;;;;;;;5106167;28;24413;-43
2021/03/29 13:14:48;;;;;;;4.03;3.45;;;;;;;;;;5105935;28;24416;-44
2021/03/29 13:17:14;;;;;;;3.97;3.03;;;;;;;;;;5102382;28;20745;-43
2021/03/29 13:19:39;;;;;;;4.67;2.70;;;;;;;;;;5099895;28;20582;-44
2021/03/29 13:22:06;;;;;;;4.47;3.13;;;;;;;;;;5106488;28;20205;-43
2021/03/29 13:24:31;;;;;;;4.73;3.23;;;;;;;;;;5102720;28;20170;-43
2021/03/29 13:26:56;;;;;;;8.00;3.50;;;;;;;;;;5095699;28;21161;-44
2021/03/29 13:29:22;;;;;;;6.22;3.45;;;;;;;;;;5097952;28;20186;-43
2021/03/29 13:31:47;;;;;;;6.68;2.92;;;;;;;;;;5096413;28;20192;-43
2021/03/29 13:34:12;;;;;;;4.37;2.80;;;;;;;;;;5105264;28;20196;-42
2021/03/29 13:36:37;;;;;;;12.40;9.43;;;;;;;;;;5107142;28;20208;-43
2021/03/29 13:39:03;;;;;;;6.75;5.78;;;;;;;;;;5094758;28;20195;-43
2021/03/29 13:41:30;;;;;;;5.90;3.97;;;;;;;;;;5106695;28;20307;-43
2021/03/29 13:43:56;;;;;;;3.57;2.77;;;;;;;;;;5106914;28;20594;-43
2021/03/29 13:46:21;;;;;;;6.73;3.63;;;;;;;;;;5107269;28;21021;-42
2021/03/29 13:48:47;;;;;;;4.50;3.08;;;;;;;;;;5107029;28;20894;-42
2021/03/29 13:51:13;;;;;;;7.27;4.47;;;;;;;;;;5105883;28;20251;-43
2021/03/29 13:53:52;;;;;;;5.53;3.57;;;;;;;;;;5101559;28;20616;-43
2021/03/29 13:56:17;;;;;;;4.23;3.40;;;;;;;;;;5087017;28;20225;-42
2021/03/29 13:58:43;;;;;;;5.30;4.33;;;;;;;;;;5097905;28;20585;-43
2021/03/29 14:01:10;;;;;;;5.20;4.30;;;;;;;;;;5106993;28;20190;-44
2021/03/29 14:03:36;;;;;;;7.70;6.10;;;;;;;;;;5095604;28;20647;-43
2021/03/29 14:06:01;;;;;;;5.90;4.87;;;;;;;;;;5091353;28;20721;-44
2021/03/29 14:08:27;;;;;;;5.20;4.70;;;;;;;;;;5091181;28;20247;-44
2021/03/29 14:10:52;;;;;;;7.18;3.30;;;;;;;;;;5102142;28;20174;-43
2021/03/29 14:13:17;;;;;;;3.70;2.80;;;;;;;;;;5105804;28;20170;-43
2021/03/29 14:15:45;;;;;;;3.55;2.55;;;;;;;;;;5106841;28;20269;-43
2021/03/29 14:18:10;;;;;;;2.30;2.10;;;;;;;;;;5106686;28;20200;-42
2021/03/29 14:20:36;;;;;;;3.53;2.17;;;;;;;;;;5106316;28;20572;-43
2021/03/29 14:23:01;;;;;;;3.40;2.00;;;;;;;;;;5106788;28;20171;-43
2021/03/29 14:25:26;;;;;;;2.50;2.13;;;;;;;;;;5106785;28;20174;-44
2021/03/29 14:27:52;;;;;;;2.40;2.20;;;;;;;;;;5106172;28;20172;-43
2021/03/29 14:30:18;;;;;;;2.47;2.23;;;;;;;;;;5106551;28;20182;-44
2021/03/29 14:32:43;;;;;;;4.10;2.20;;;;;;;;;;5106581;28;20657;-44
2021/03/29 14:35:14;;;;;;;5.10;2.23;;;;;;;;;;5111091;28;20211;-43
2021/03/29 14:40:46;;;;;;;4.40;1.93;;;;;;;;;;5111011;28;20602;-43
2021/03/29 14:43:47;;;;;;;2.97;2.40;;;;;;;;;;5110499;28;20701;-43
2021/03/29 14:46:12;;;;;;;3.33;2.10;;;;;;;;;;5111071;28;20596;-44
2021/03/29 14:48:37;;;;;;;2.72;2.40;;;;;;;;;;5109582;28;21483;-50
2021/03/29 14:51:03;;;;;;;2.30;1.83;;;;;;;;;;5110514;28;20230;-43
2021/03/29 14:53:28;;;;;;;3.33;2.00;;;;;;;;;;5110499;28;20672;-43